sensor_id;sensor_type;location;lat;lon;timestamp;pressure;altitude;pressure_sealevel;temperature;humidity
56420;BME280;42323;52.170;7.538;2022-12-29T00:00:18;99768.69;;;8.50;100.00
56420;BME280;42323;52.170;7.538;2022-12-29T00:02:45;99785.34;;;8.64;100.00
56420;BME280;42323;52.170;7.538;2022-12-29T00:05:13;99772.00;;;8.59;100.00
56420;BME280;42323;52.170;7.538;2022-12-29T00:07:40;99781.47;;;8.60;100.00
56420;BME280;42323;52.170;7.538;2022-12-29T00:10:07;99765.63;;;8.61;100.00
56420;BME280;42323;52.170;7.538;2022-12-29T00:12:34;99764.25;;;8.65;100.00
56420;BME280;42323;52.170;7.538;2022-12-29T00:15:19;99763.94;;;8.75;100.00
56420;BME280;42323;52.170;7.538;2022-12-29T00:18:06;99756.66;;;8.70;100.00
56420;BME280;42323;52.170;7.538;2022-12-29T00:20:36;99765.38;;;8.77;100.00
56420;BME280;42323;52.170;7.538;2022-12-29T00:23:22;99753.00;;;8.86;100.00
56420;BME280;42323;52.170;7.538;2022-12-29T00:26:16;99766.81;;;9.01;100.00
56420;BME280;42323;52.170;7.538;2022-12-29T00:29:02;99739.16;;;8.86;100.00
56420;BME280;42323;52.170;7.538;2022-12-29T00:31:47;99704.06;;;8.73;100.00
56420;BME280;42323;52.170;7.538;2022-12-29T00:34:33;99725.69;;;8.89;100.00
56420;BME280;42323;52.170;7.538;2022-12-29T00:37:18;99731.22;;;9.00;100.00
56420;BME280;42323;52.170;7.538;2022-12-29T00:40:05;99709.66;;;8.92;100.00
56420;BME280;42323;52.170;7.538;2022-12-29T00:42:52;99711.03;;;8.88;100.00
56420;BME280;42323;52.170;7.538;2022-12-29T00:45:40;99677.53;;;8.70;100.00
56420;BME280;42323;52.170;7.538;2022-12-29T00:48:08;99691.69;;;8.82;100.00
56420;BME280;42323;52.170;7.538;2022-12-29T00:50:34;99703.63;;;8.91;100.00
56420;BME280;42323;52.170;7.538;2022-12-29T00:53:01;99696.72;;;8.84;100.00
56420;BME280;42323;52.170;7.538;2022-12-29T00:55:28;99691.72;;;8.89;100.00
56420;BME280;42323;52.170;7.538;2022-12-29T00:57:54;99713.97;;;9.06;100.00
56420;BME280;42323;52.170;7.538;2022-12-29T01:00:21;99704.53;;;9.05;100.00
56420;BME280;42323;52.170;7.538;2022-12-29T01:02:48;99702.13;;;9.03;100.00
56420;BME280;42323;52.170;7.538;2022-12-29T01:05:15;99697.50;;;9.05;100.00
56420;BME280;42323;52.170;7.538;2022-12-29T01:07:43;99673.88;;;8.92;100.00
56420;BME280;42323;52.170;7.538;2022-12-29T01:10:10;99702.13;;;9.03;100.00
56420;BME280;42323;52.170;7.538;2022-12-29T01:12:37;99703.97;;;9.10;100.00
56420;BME280;42323;52.170;7.538;2022-12-29T01:15:13;99706.09;;;8.99;100.00
56420;BME280;42323;52.170;7.538;2022-12-29T01:17:40;99669.59;;;8.85;100.00
56420;BME280;42323;52.170;7.538;2022-12-29T01:20:07;99685.94;;;8.93;100.00
56420;BME280;42323;52.170;7.538;2022-12-29T01:22:34;99679.06;;;8.86;100.00
56420;BME280;42323;52.170;7.538;2022-12-29T01:25:01;99702.19;;;8.89;100.00
56420;BME280;42323;52.170;7.538;2022-12-29T01:27:28;99700.50;;;9.02;100.00
56420;BME280;42323;52.170;7.538;2022-12-29T01:29:55;99707.94;;;9.05;100.00
56420;BME280;42323;52.170;7.538;2022-12-29T01:32:22;99692.28;;;9.05;100.00
56420;BME280;42323;52.170;7.538;2022-12-29T01:34:49;99669.16;;;9.02;100.00
56420;BME280;42323;52.170;7.538;2022-12-29T01:37:15;99685.06;;;9.08;100.00
56420;BME280;42323;52.170;7.538;2022-12-29T01:39:43;99675.13;;;8.96;100.00
56420;BME280;42323;52.170;7.538;2022-12-29T01:42:27;99665.63;;;8.89;100.00
56420;BME280;42323;52.170;7.538;2022-12-29T01:44:56;99693.66;;;9.01;100.00
56420;BME280;42323;52.170;7.538;2022-12-29T01:47:31;99689.06;;;9.03;100.00
56420;BME280;42323;52.170;7.538;2022-12-29T01:50:04;99663.28;;;8.94;100.00
56420;BME280;42323;52.170;7.538;2022-12-29T01:52:35;99652.81;;;8.94;100.00
56420;BME280;42323;52.170;7.538;2022-12-29T01:55:04;99642.31;;;8.87;100.00
56420;BME280;42323;52.170;7.538;2022-12-29T01:57:34;99667.84;;;8.92;100.00
56420;BME280;42323;52.170;7.538;2022-12-29T02:00:06;99635.59;;;8.78;100.00
56420;BME280;42323;52.170;7.538;2022-12-29T02:02:35;99671.19;;;9.07;100.00
56420;BME280;42323;52.170;7.538;2022-12-29T02:08:05;99645.88;;;9.08;100.00
56420;BME280;42323;52.170;7.538;2022-12-29T02:10:34;99668.63;;;9.14;100.00
56420;BME280;42323;52.170;7.538;2022-12-29T02:13:02;99639.84;;;9.07;100.00
56420;BME280;42323;52.170;7.538;2022-12-29T02:24:05;99629.88;;;9.24;100.00
56420;BME280;42323;52.170;7.538;2022-12-29T02:26:35;99651.22;;;9.27;100.00
56420;BME280;42323;52.170;7.538;2022-12-29T02:32:05;99624.75;;;9.37;100.00
56420;BME280;42323;52.170;7.538;2022-12-29T02:37:17;99630.84;;;9.51;100.00
56420;BME280;42323;52.170;7.538;2022-12-29T02:40:26;99637.09;;;9.57;100.00
56420;BME280;42323;52.170;7.538;2022-12-29T02:48:47;99631.66;;;9.51;100.00
56420;BME280;42323;52.170;7.538;2022-12-29T02:51:19;99636.09;;;9.51;100.00
56420;BME280;42323;52.170;7.538;2022-12-29T02:53:48;99621.41;;;9.50;100.00
56420;BME280;42323;52.170;7.538;2022-12-29T02:56:33;99615.47;;;9.35;100.00
56420;BME280;42323;52.170;7.538;2022-12-29T02:59:00;99634.28;;;9.51;100.00
56420;BME280;42323;52.170;7.538;2022-12-29T03:13:33;99601.56;;;9.27;100.00
56420;BME280;42323;52.170;7.538;2022-12-29T03:16:24;99583.84;;;9.23;100.00
56420;BME280;42323;52.170;7.538;2022-12-29T03:19:14;99605.25;;;9.40;100.00
56420;BME280;42323;52.170;7.538;2022-12-29T03:21:47;99586.34;;;9.38;100.00
56420;BME280;42323;52.170;7.538;2022-12-29T03:24:37;99586.13;;;9.39;100.00
56420;BME280;42323;52.170;7.538;2022-12-29T03:27:06;99590.34;;;9.40;99.25
56420;BME280;42323;52.170;7.538;2022-12-29T03:29:39;99594.41;;;9.49;99.06
56420;BME280;42323;52.170;7.538;2022-12-29T03:32:08;99580.97;;;9.52;97.31
56420;BME280;42323;52.170;7.538;2022-12-29T03:34:36;99580.38;;;9.50;96.53
56420;BME280;42323;52.170;7.538;2022-12-29T03:37:10;99573.34;;;9.58;95.55
56420;BME280;42323;52.170;7.538;2022-12-29T03:39:39;99569.97;;;9.64;95.96
56420;BME280;42323;52.170;7.538;2022-12-29T03:42:12;99586.28;;;9.72;94.70
56420;BME280;42323;52.170;7.538;2022-12-29T03:44:42;99569.38;;;9.75;94.15
56420;BME280;42323;52.170;7.538;2022-12-29T03:47:11;99569.63;;;9.87;92.61
56420;BME280;42323;52.170;7.538;2022-12-29T03:49:39;99574.25;;;9.85;93.09
56420;BME280;42323;52.170;7.538;2022-12-29T03:52:06;99553.03;;;9.60;93.24
56420;BME280;42323;52.170;7.538;2022-12-29T03:54:32;99556.72;;;9.78;92.54
56420;BME280;42323;52.170;7.538;2022-12-29T03:56:59;99568.63;;;9.94;91.11
56420;BME280;42323;52.170;7.538;2022-12-29T03:59:26;99555.13;;;9.91;90.52
56420;BME280;42323;52.170;7.538;2022-12-29T04:01:53;99528.34;;;9.82;90.12
56420;BME280;42323;52.170;7.538;2022-12-29T04:04:20;99532.13;;;9.66;90.36
56420;BME280;42323;52.170;7.538;2022-12-29T04:06:47;99547.50;;;10.02;88.66
56420;BME280;42323;52.170;7.538;2022-12-29T04:09:13;99553.34;;;10.04;87.92
56420;BME280;42323;52.170;7.538;2022-12-29T04:11:40;99545.91;;;10.08;88.25
56420;BME280;42323;52.170;7.538;2022-12-29T04:14:07;99555.78;;;10.06;88.29
56420;BME280;42323;52.170;7.538;2022-12-29T04:16:33;99559.19;;;10.07;87.53
56420;BME280;42323;52.170;7.538;2022-12-29T04:19:02;99535.22;;;9.90;87.46
56420;BME280;42323;52.170;7.538;2022-12-29T04:21:29;99540.44;;;9.96;87.96
56420;BME280;42323;52.170;7.538;2022-12-29T04:23:56;99535.81;;;10.05;87.12
56420;BME280;42323;52.170;7.538;2022-12-29T04:26:23;99544.50;;;10.19;86.85
56420;BME280;42323;52.170;7.538;2022-12-29T04:28:49;99538.66;;;10.10;86.19
56420;BME280;42323;52.170;7.538;2022-12-29T04:31:16;99538.28;;;10.26;85.94
56420;BME280;42323;52.170;7.538;2022-12-29T04:33:44;99499.00;;;10.13;86.24
56420;BME280;42323;52.170;7.538;2022-12-29T04:36:10;99530.63;;;10.12;86.27
56420;BME280;42323;52.170;7.538;2022-12-29T04:38:37;99548.94;;;10.12;87.11
56420;BME280;42323;52.170;7.538;2022-12-29T04:41:04;99555.78;;;10.06;87.35
56420;BME280;42323;52.170;7.538;2022-12-29T04:43:31;99549.53;;;10.14;87.18
56420;BME280;42323;52.170;7.538;2022-12-29T04:45:57;99555.97;;;10.18;87.50
56420;BME280;42323;52.170;7.538;2022-12-29T04:48:24;99564.63;;;9.98;88.59
56420;BME280;42323;52.170;7.538;2022-12-29T04:50:51;99552.09;;;9.80;89.98
56420;BME280;42323;52.170;7.538;2022-12-29T04:53:18;99596.13;;;9.70;91.76
56420;BME280;42323;52.170;7.538;2022-12-29T04:55:48;99591.50;;;9.72;92.48
56420;BME280;42323;52.170;7.538;2022-12-29T04:58:16;99569.53;;;9.67;92.21
56420;BME280;42323;52.170;7.538;2022-12-29T05:00:49;99532.88;;;9.47;93.83
56420;BME280;42323;52.170;7.538;2022-12-29T05:03:19;99519.25;;;9.10;95.33
56420;BME280;42323;52.170;7.538;2022-12-29T05:05:55;99577.28;;;9.34;97.49
56420;BME280;42323;52.170;7.538;2022-12-29T05:08:23;99543.34;;;9.05;98.13
56420;BME280;42323;52.170;7.538;2022-12-29T05:10:54;99560.91;;;9.18;98.54
56420;BME280;42323;52.170;7.538;2022-12-29T05:13:20;99571.34;;;9.12;99.09
56420;BME280;42323;52.170;7.538;2022-12-29T05:15:50;99575.56;;;9.13;99.92
56420;BME280;42323;52.170;7.538;2022-12-29T05:18:17;99560.25;;;9.10;99.10
56420;BME280;42323;52.170;7.538;2022-12-29T05:20:45;99567.09;;;9.11;99.32
56420;BME280;42323;52.170;7.538;2022-12-29T05:23:13;99580.34;;;9.09;99.00
56420;BME280;42323;52.170;7.538;2022-12-29T05:25:40;99563.00;;;9.01;99.91
56420;BME280;42323;52.170;7.538;2022-12-29T05:28:06;99540.22;;;8.89;100.00
56420;BME280;42323;52.170;7.538;2022-12-29T05:30:33;99574.63;;;8.92;100.00
56420;BME280;42323;52.170;7.538;2022-12-29T05:33:00;99583.22;;;8.86;100.00
56420;BME280;42323;52.170;7.538;2022-12-29T05:35:27;99600.88;;;8.84;100.00
56420;BME280;42323;52.170;7.538;2022-12-29T05:37:53;99613.91;;;8.77;100.00
56420;BME280;42323;52.170;7.538;2022-12-29T05:40:20;99610.66;;;8.75;100.00
56420;BME280;42323;52.170;7.538;2022-12-29T05:42:47;99625.59;;;8.82;100.00
56420;BME280;42323;52.170;7.538;2022-12-29T05:45:14;99608.28;;;8.80;100.00
56420;BME280;42323;52.170;7.538;2022-12-29T05:47:41;99596.00;;;8.74;100.00
56420;BME280;42323;52.170;7.538;2022-12-29T05:50:08;99592.16;;;8.70;100.00
56420;BME280;42323;52.170;7.538;2022-12-29T05:52:34;99603.41;;;8.71;100.00
56420;BME280;42323;52.170;7.538;2022-12-29T05:55:01;99593.22;;;8.54;100.00
56420;BME280;42323;52.170;7.538;2022-12-29T05:57:28;99605.31;;;8.56;100.00
56420;BME280;42323;52.170;7.538;2022-12-29T05:59:54;99584.16;;;8.50;100.00
56420;BME280;42323;52.170;7.538;2022-12-29T06:02:21;99600.66;;;8.51;100.00
56420;BME280;42323;52.170;7.538;2022-12-29T06:04:48;99599.63;;;8.52;100.00
56420;BME280;42323;52.170;7.538;2022-12-29T06:07:15;99619.97;;;8.57;100.00
56420;BME280;42323;52.170;7.538;2022-12-29T06:09:42;99611.66;;;8.46;100.00
56420;BME280;42323;52.170;7.538;2022-12-29T06:12:09;99610.25;;;8.50;100.00
56420;BME280;42323;52.170;7.538;2022-12-29T06:14:36;99603.47;;;8.35;100.00
56420;BME280;42323;52.170;7.538;2022-12-29T06:17:02;99604.97;;;8.22;100.00
56420;BME280;42323;52.170;7.538;2022-12-29T06:19:29;99624.81;;;8.38;100.00
56420;BME280;42323;52.170;7.538;2022-12-29T06:21:56;99611.66;;;8.32;98.80
56420;BME280;42323;52.170;7.538;2022-12-29T06:24:22;99645.19;;;8.49;97.51
56420;BME280;42323;52.170;7.538;2022-12-29T06:26:49;99517.56;;;7.69;97.02
56420;BME280;42323;52.170;7.538;2022-12-29T06:29:17;99563.78;;;7.96;97.16
56420;BME280;42323;52.170;7.538;2022-12-29T06:31:44;99587.75;;;8.28;96.12
56420;BME280;42323;52.170;7.538;2022-12-29T06:34:15;99550.78;;;8.03;95.99
56420;BME280;42323;52.170;7.538;2022-12-29T06:36:42;99604.13;;;8.37;95.17
56420;BME280;42323;52.170;7.538;2022-12-29T06:39:10;99656.63;;;8.70;92.70
56420;BME280;42323;52.170;7.538;2022-12-29T06:41:36;99628.00;;;8.55;93.47
56420;BME280;42323;52.170;7.538;2022-12-29T06:44:04;99658.88;;;8.73;92.90
56420;BME280;42323;52.170;7.538;2022-12-29T06:46:31;99660.84;;;8.71;92.19
56420;BME280;42323;52.170;7.538;2022-12-29T06:48:58;99672.16;;;8.78;91.32
56420;BME280;42323;52.170;7.538;2022-12-29T06:51:24;99674.16;;;8.76;91.97
56420;BME280;42323;52.170;7.538;2022-12-29T06:53:51;99684.22;;;8.79;91.42
56420;BME280;42323;52.170;7.538;2022-12-29T06:56:18;99669.81;;;8.62;91.46
56420;BME280;42323;52.170;7.538;2022-12-29T06:58:45;99683.22;;;8.59;92.27
56420;BME280;42323;52.170;7.538;2022-12-29T07:01:11;99683.97;;;8.52;92.66
56420;BME280;42323;52.170;7.538;2022-12-29T07:03:41;99675.47;;;8.44;93.39
56420;BME280;42323;52.170;7.538;2022-12-29T07:06:08;99667.56;;;8.37;92.55
56420;BME280;42323;52.170;7.538;2022-12-29T07:08:36;99684.84;;;8.38;92.55
56420;BME280;42323;52.170;7.538;2022-12-29T07:11:05;99667.94;;;8.19;92.80
56420;BME280;42323;52.170;7.538;2022-12-29T07:13:31;99656.22;;;7.94;92.63
56420;BME280;42323;52.170;7.538;2022-12-29T07:15:58;99696.19;;;8.16;92.92
56420;BME280;42323;52.170;7.538;2022-12-29T07:18:25;99686.50;;;8.10;93.27
56420;BME280;42323;52.170;7.538;2022-12-29T07:20:52;99679.03;;;8.07;92.69
56420;BME280;42323;52.170;7.538;2022-12-29T07:23:18;99658.66;;;7.95;92.43
56420;BME280;42323;52.170;7.538;2022-12-29T07:25:45;99678.88;;;7.93;93.31
56420;BME280;42323;52.170;7.538;2022-12-29T07:28:13;99696.34;;;8.08;92.67
56420;BME280;42323;52.170;7.538;2022-12-29T07:30:40;99679.19;;;8.20;91.53
56420;BME280;42323;52.170;7.538;2022-12-29T07:33:07;99694.22;;;8.18;90.90
56420;BME280;42323;52.170;7.538;2022-12-29T07:35:34;99707.53;;;8.23;89.78
56420;BME280;42323;52.170;7.538;2022-12-29T07:38:03;99695.88;;;8.04;90.94
56420;BME280;42323;52.170;7.538;2022-12-29T07:40:31;99705.66;;;8.17;90.73
56420;BME280;42323;52.170;7.538;2022-12-29T07:42:58;99651.50;;;7.83;90.29
56420;BME280;42323;52.170;7.538;2022-12-29T07:45:25;99692.34;;;8.12;88.75
56420;BME280;42323;52.170;7.538;2022-12-29T07:47:52;99706.13;;;8.05;89.75
56420;BME280;42323;52.170;7.538;2022-12-29T07:50:19;99699.19;;;8.13;88.78
56420;BME280;42323;52.170;7.538;2022-12-29T07:52:45;99701.00;;;8.12;88.65
56420;BME280;42323;52.170;7.538;2022-12-29T07:55:14;99711.53;;;8.04;88.21
56420;BME280;42323;52.170;7.538;2022-12-29T07:57:41;99713.59;;;8.09;88.53
56420;BME280;42323;52.170;7.538;2022-12-29T08:00:09;99718.31;;;8.20;87.84
56420;BME280;42323;52.170;7.538;2022-12-29T08:02:36;99701.06;;;8.19;87.95
56420;BME280;42323;52.170;7.538;2022-12-29T08:05:03;99725.78;;;8.23;88.21
56420;BME280;42323;52.170;7.538;2022-12-29T08:07:30;99737.22;;;8.22;87.22
56420;BME280;42323;52.170;7.538;2022-12-29T08:09:56;99705.13;;;8.07;87.14
56420;BME280;42323;52.170;7.538;2022-12-29T08:12:24;99724.84;;;8.09;87.84
56420;BME280;42323;52.170;7.538;2022-12-29T08:14:51;99730.94;;;8.16;87.96
56420;BME280;42323;52.170;7.538;2022-12-29T08:17:17;99730.31;;;8.29;86.18
56420;BME280;42323;52.170;7.538;2022-12-29T08:19:44;99725.25;;;8.27;86.54
56420;BME280;42323;52.170;7.538;2022-12-29T08:22:11;99738.91;;;8.44;85.84
56420;BME280;42323;52.170;7.538;2022-12-29T08:24:37;99720.91;;;8.49;84.57
56420;BME280;42323;52.170;7.538;2022-12-29T08:27:04;99722.16;;;8.53;84.97
56420;BME280;42323;52.170;7.538;2022-12-29T08:29:45;99715.81;;;8.63;85.25
56420;BME280;42323;52.170;7.538;2022-12-29T08:32:12;99725.88;;;8.66;84.39
56420;BME280;42323;52.170;7.538;2022-12-29T08:34:38;99736.72;;;8.84;84.03
56420;BME280;42323;52.170;7.538;2022-12-29T08:37:05;99738.94;;;8.87;83.52
56420;BME280;42323;52.170;7.538;2022-12-29T08:39:32;99732.69;;;8.82;84.09
56420;BME280;42323;52.170;7.538;2022-12-29T08:42:00;99727.00;;;8.78;84.28
56420;BME280;42323;52.170;7.538;2022-12-29T08:44:27;99712.84;;;8.87;83.44
56420;BME280;42323;52.170;7.538;2022-12-29T08:46:53;99738.75;;;9.10;83.53
56420;BME280;42323;52.170;7.538;2022-12-29T08:49:20;99735.69;;;9.07;83.22
56420;BME280;42323;52.170;7.538;2022-12-29T08:51:47;99739.94;;;9.08;83.36
56420;BME280;42323;52.170;7.538;2022-12-29T08:54:14;99749.44;;;9.15;81.76
56420;BME280;42323;52.170;7.538;2022-12-29T08:56:40;99728.78;;;9.20;81.23
56420;BME280;42323;52.170;7.538;2022-12-29T08:59:07;99730.97;;;9.45;79.82
56420;BME280;42323;52.170;7.538;2022-12-29T09:01:34;99732.25;;;9.55;78.65
56420;BME280;42323;52.170;7.538;2022-12-29T09:04:03;99727.84;;;9.63;77.96
56420;BME280;42323;52.170;7.538;2022-12-29T09:06:41;99751.66;;;9.68;78.45
56420;BME280;42323;52.170;7.538;2022-12-29T09:09:08;99724.44;;;9.62;78.44
56420;BME280;42323;52.170;7.538;2022-12-29T09:11:34;99751.31;;;9.84;77.24
56420;BME280;42323;52.170;7.538;2022-12-29T09:14:01;99736.78;;;9.75;77.40
56420;BME280;42323;52.170;7.538;2022-12-29T09:16:28;99734.97;;;9.75;76.29
56420;BME280;42323;52.170;7.538;2022-12-29T09:18:55;99733.75;;;9.71;76.12
56420;BME280;42323;52.170;7.538;2022-12-29T09:21:21;99693.97;;;9.48;75.13
56420;BME280;42323;52.170;7.538;2022-12-29T09:23:48;99713.53;;;9.52;74.49
56420;BME280;42323;52.170;7.538;2022-12-29T09:26:15;99757.34;;;9.78;73.82
56420;BME280;42323;52.170;7.538;2022-12-29T09:28:42;99740.47;;;9.87;72.60
56420;BME280;42323;52.170;7.538;2022-12-29T09:31:10;99744.97;;;9.93;72.45
56420;BME280;42323;52.170;7.538;2022-12-29T09:33:37;99744.22;;;10.13;71.32
56420;BME280;42323;52.170;7.538;2022-12-29T09:36:04;99754.78;;;10.26;71.38
56420;BME280;42323;52.170;7.538;2022-12-29T09:38:31;99744.94;;;10.28;71.27
56420;BME280;42323;52.170;7.538;2022-12-29T09:41:14;99764.97;;;10.55;70.97
56420;BME280;42323;52.170;7.538;2022-12-29T09:44:08;99743.16;;;10.42;69.88
56420;BME280;42323;52.170;7.538;2022-12-29T09:46:45;99770.41;;;10.54;70.60
56420;BME280;42323;52.170;7.538;2022-12-29T09:52:27;99760.91;;;10.46;70.36
56420;BME280;42323;52.170;7.538;2022-12-29T09:55:03;99771.00;;;10.49;69.59
56420;BME280;42323;52.170;7.538;2022-12-29T09:57:47;99775.22;;;10.50;68.87
56420;BME280;42323;52.170;7.538;2022-12-29T10:00:18;99759.25;;;10.39;69.28
56420;BME280;42323;52.170;7.538;2022-12-29T10:02:49;99780.03;;;10.47;69.42
56420;BME280;42323;52.170;7.538;2022-12-29T10:10:57;99754.09;;;11.98;63.42
56420;BME280;42323;52.170;7.538;2022-12-29T10:13:43;99751.84;;;12.53;61.95
56420;BME280;42323;52.170;7.538;2022-12-29T10:16:25;99769.63;;;12.51;61.16
56420;BME280;42323;52.170;7.538;2022-12-29T10:24:18;99767.47;;;11.83;63.75
56420;BME280;42323;52.170;7.538;2022-12-29T10:26:50;99756.97;;;11.56;63.80
56420;BME280;42323;52.170;7.538;2022-12-29T10:29:22;99764.00;;;11.89;63.98
56420;BME280;42323;52.170;7.538;2022-12-29T10:31:58;99752.28;;;11.98;65.28
56420;BME280;42323;52.170;7.538;2022-12-29T10:34:33;99775.13;;;11.51;66.88
56420;BME280;42323;52.170;7.538;2022-12-29T10:37:05;99758.19;;;10.94;69.24
56420;BME280;42323;52.170;7.538;2022-12-29T10:39:49;99757.47;;;10.52;70.63
56420;BME280;42323;52.170;7.538;2022-12-29T10:42:39;99764.13;;;10.48;71.13
56420;BME280;42323;52.170;7.538;2022-12-29T10:45:16;99775.00;;;10.45;72.35
56420;BME280;42323;52.170;7.538;2022-12-29T10:50:22;99710.69;;;9.88;72.22
56420;BME280;42323;52.170;7.538;2022-12-29T10:52:49;99755.34;;;10.21;72.11
56420;BME280;42323;52.170;7.538;2022-12-29T10:55:24;99759.63;;;10.29;71.75
56420;BME280;42323;52.170;7.538;2022-12-29T10:57:55;99761.63;;;10.27;71.70
56420;BME280;42323;52.170;7.538;2022-12-29T11:00:25;99768.34;;;10.43;71.23
56420;BME280;42323;52.170;7.538;2022-12-29T11:08:17;99751.06;;;10.62;70.54
56420;BME280;42323;52.170;7.538;2022-12-29T11:10:46;99774.94;;;11.20;69.85
56420;BME280;42323;52.170;7.538;2022-12-29T11:13:29;99777.13;;;11.76;66.73
56420;BME280;42323;52.170;7.538;2022-12-29T11:16:04;99761.38;;;11.76;66.55
56420;BME280;42323;52.170;7.538;2022-12-29T11:18:35;99765.44;;;11.65;66.98
56420;BME280;42323;52.170;7.538;2022-12-29T11:21:41;99776.16;;;11.70;66.78
56420;BME280;42323;52.170;7.538;2022-12-29T11:24:28;99769.91;;;11.32;67.87
56420;BME280;42323;52.170;7.538;2022-12-29T11:27:18;99779.56;;;10.98;69.02
56420;BME280;42323;52.170;7.538;2022-12-29T11:29:47;99771.66;;;10.71;70.24
56420;BME280;42323;52.170;7.538;2022-12-29T11:32:21;99825.47;;;10.74;70.18
56420;BME280;42323;52.170;7.538;2022-12-29T11:34:55;99784.94;;;10.63;71.14
56420;BME280;42323;52.170;7.538;2022-12-29T11:37:38;99819.19;;;10.68;71.31
56420;BME280;42323;52.170;7.538;2022-12-29T11:40:15;99810.03;;;10.44;72.82
56420;BME280;42323;52.170;7.538;2022-12-29T11:45:24;99813.19;;;10.26;72.88
56420;BME280;42323;52.170;7.538;2022-12-29T11:48:06;99823.50;;;10.35;73.57
56420;BME280;42323;52.170;7.538;2022-12-29T11:50:37;99814.00;;;10.27;74.12
56420;BME280;42323;52.170;7.538;2022-12-29T11:55:52;99835.59;;;10.36;74.53
56420;BME280;42323;52.170;7.538;2022-12-29T11:58:19;99795.41;;;10.15;75.55
56420;BME280;42323;52.170;7.538;2022-12-29T12:00:48;99858.28;;;9.94;77.58
56420;BME280;42323;52.170;7.538;2022-12-29T12:03:22;99835.63;;;9.79;79.03
56420;BME280;42323;52.170;7.538;2022-12-29T12:05:54;99846.69;;;9.53;80.43
56420;BME280;42323;52.170;7.538;2022-12-29T12:11:17;99726.44;;;8.25;84.93
56420;BME280;42323;52.170;7.538;2022-12-29T12:14:01;99847.41;;;8.83;86.54
56420;BME280;42323;52.170;7.538;2022-12-29T12:16:50;99902.06;;;8.85;86.95
56420;BME280;42323;52.170;7.538;2022-12-29T12:24:52;99854.63;;;8.81;84.30
56420;BME280;42323;52.170;7.538;2022-12-29T12:32:56;99867.84;;;8.94;83.13
56420;BME280;42323;52.170;7.538;2022-12-29T12:44:15;99939.53;;;9.64;78.71
56420;BME280;42323;52.170;7.538;2022-12-29T12:55:44;99911.28;;;10.02;75.38
56420;BME280;42323;52.170;7.538;2022-12-29T13:06:52;99938.84;;;10.26;74.78
56420;BME280;42323;52.170;7.538;2022-12-29T13:09:36;99941.84;;;10.23;75.13
56420;BME280;42323;52.170;7.538;2022-12-29T13:25:56;99963.66;;;10.09;74.30
56420;BME280;42323;52.170;7.538;2022-12-29T13:31:15;99926.78;;;9.76;74.95
56420;BME280;42323;52.170;7.538;2022-12-29T13:34:12;99974.25;;;10.01;74.24
56420;BME280;42323;52.170;7.538;2022-12-29T13:39:30;99916.53;;;9.81;73.38
56420;BME280;42323;52.170;7.538;2022-12-29T13:41:59;99919.16;;;9.81;72.66
56420;BME280;42323;52.170;7.538;2022-12-29T13:49:46;99969.59;;;9.96;73.52
56420;BME280;42323;52.170;7.538;2022-12-29T14:00:18;99995.94;;;10.16;71.82
56420;BME280;42323;52.170;7.538;2022-12-29T14:07:57;99985.88;;;9.92;72.68
56420;BME280;42323;52.170;7.538;2022-12-29T14:10:47;100007.69;;;9.99;73.43
56420;BME280;42323;52.170;7.538;2022-12-29T14:13:17;99988.78;;;10.03;72.29
56420;BME280;42323;52.170;7.538;2022-12-29T14:15:50;100005.75;;;10.08;72.17
56420;BME280;42323;52.170;7.538;2022-12-29T14:18:23;100018.25;;;10.12;72.86
56420;BME280;42323;52.170;7.538;2022-12-29T14:21:04;100015.56;;;10.05;72.23
56420;BME280;42323;52.170;7.538;2022-12-29T14:23:46;100020.53;;;9.94;73.54
56420;BME280;42323;52.170;7.538;2022-12-29T14:28:48;100003.16;;;9.71;73.87
56420;BME280;42323;52.170;7.538;2022-12-29T14:40:23;100030.66;;;10.03;73.12
56420;BME280;42323;52.170;7.538;2022-12-29T14:42:54;100035.47;;;10.00;72.52
56420;BME280;42323;52.170;7.538;2022-12-29T14:45:28;100020.44;;;9.87;72.75
56420;BME280;42323;52.170;7.538;2022-12-29T14:47:55;99974.94;;;9.45;72.54
56420;BME280;42323;52.170;7.538;2022-12-29T14:50:25;100022.38;;;9.78;72.87
56420;BME280;42323;52.170;7.538;2022-12-29T14:53:02;100045.91;;;9.78;73.71
56420;BME280;42323;52.170;7.538;2022-12-29T14:55:53;100032.59;;;9.73;73.22
56420;BME280;42323;52.170;7.538;2022-12-29T14:58:27;100024.84;;;9.65;73.29
56420;BME280;42323;52.170;7.538;2022-12-29T15:00:55;100055.13;;;9.74;73.97
56420;BME280;42323;52.170;7.538;2022-12-29T15:03:25;100032.34;;;9.53;73.86
56420;BME280;42323;52.170;7.538;2022-12-29T15:05:57;100028.31;;;9.51;73.93
56420;BME280;42323;52.170;7.538;2022-12-29T15:08:39;100046.56;;;9.66;72.92
56420;BME280;42323;52.170;7.538;2022-12-29T15:11:42;100037.59;;;9.53;73.49
56420;BME280;42323;52.170;7.538;2022-12-29T15:14:36;100040.59;;;9.50;73.70
56420;BME280;42323;52.170;7.538;2022-12-29T15:17:26;100041.44;;;9.58;72.81
56420;BME280;42323;52.170;7.538;2022-12-29T15:19:55;99995.53;;;9.34;72.71
56420;BME280;42323;52.170;7.538;2022-12-29T15:22:22;100002.38;;;9.35;72.55
56420;BME280;42323;52.170;7.538;2022-12-29T15:24:51;100035.72;;;9.47;72.63
56420;BME280;42323;52.170;7.538;2022-12-29T15:27:21;100045.88;;;9.57;72.83
56420;BME280;42323;52.170;7.538;2022-12-29T15:30:00;100055.53;;;9.57;73.12
56420;BME280;42323;52.170;7.538;2022-12-29T15:32:43;100062.97;;;9.38;75.12
56420;BME280;42323;52.170;7.538;2022-12-29T15:35:29;100075.03;;;9.10;78.29
56420;BME280;42323;52.170;7.538;2022-12-29T15:37:57;100083.75;;;8.72;81.41
56420;BME280;42323;52.170;7.538;2022-12-29T15:40:30;100114.56;;;8.54;85.08
56420;BME280;42323;52.170;7.538;2022-12-29T15:45:43;100086.72;;;8.00;91.34
56420;BME280;42323;52.170;7.538;2022-12-29T15:48:19;100078.69;;;7.79;93.80
56420;BME280;42323;52.170;7.538;2022-12-29T15:50:48;100081.88;;;7.58;95.16
56420;BME280;42323;52.170;7.538;2022-12-29T15:53:24;100096.81;;;7.72;95.32
56420;BME280;42323;52.170;7.538;2022-12-29T15:56:06;100085.31;;;7.59;95.16
56420;BME280;42323;52.170;7.538;2022-12-29T15:58:42;100087.63;;;7.53;94.58
56420;BME280;42323;52.170;7.538;2022-12-29T16:01:29;100104.56;;;7.49;96.88